Sidney, Maine
Current Conditions -  °F | °C
As of 9:23 PM on Saturday 20 Dec 2014 (Local Time) from KAUG Reporting Station
Overcast Overcast  
Wind Chill: 11°   Ceiling: 1000
Heat Index: 20°   Visibility: 10mi
Dew Point: 16°   Wind: 7mph
Humidity: 85%   Direction: 320°NW
Pressure: 30.37"   Gusts: NA
Location:  44.3261°N, 69.698°W
Report Text: KAUG 210223Z AUTO 32006KT 10SM OVC010 M07/M09 A3037 RMK AO2 T10671089
Loading
Personal Weather Stations






























Interactive Weather Map New forecast layout! Learn more

10-Day Weather Forecast

Advertisements
Track Severe Weather on mobile